Airport View

Enter ICAO identifier to see the current METAR for that AWOS.

KFNL for example

KELO 290813Z AUTO 20003KT 10SM SCT070 SCT075 BKN100 14/12 A3008

29 Jul 2014 08:39

Frequency: 132.025

Phone: 218-365-3814

Other Area AWOS: KCQM - KEVM - KCDD - KBFW

TAF KHIB 290520Z 2906/3006 32005KT P6SM VCSH SCT080 FM291500 32011KT P6SM SCT045 FM292100 31011G17KT P6SM VCSH BKN050 FM300200 34005KT P6SM SCT050